Time;durP1;ratioP1;P1;durP2;ratioP2;P2;SDS_P1;SDS_P2;PMS_P1;PMS_P2;Temp;Humidity;BMP_temperature;BMP_pressure;BME280_temperature;BME280_humidity;BME280_pressure;Samples;Min_cycle;Max_cycle;Signal;HPM_P1;HPM_P2
2021/01/29 00:00:41;;;;;;;3.50;2.85;;;;;;;;;;4963210;28;20217;-91
2021/01/29 00:03:12;;;;;;;2.47;2.28;;;;;;;;;;4963438;29;20220;-92
2021/01/29 00:05:42;;;;;;;2.80;2.53;;;;;;;;;;4963550;29;20211;-92
2021/01/29 00:08:10;;;;;;;3.13;2.47;;;;;;;;;;4963872;29;20231;-92
2021/01/29 00:10:39;;;;;;;2.92;2.13;;;;;;;;;;4963052;29;20209;-93
2021/01/29 00:13:07;;;;;;;2.95;2.58;;;;;;;;;;4962456;29;20186;-93
2021/01/29 00:15:35;;;;;;;2.00;1.90;;;;;;;;;;4963024;28;20252;-93
2021/01/29 00:18:03;;;;;;;2.72;2.53;;;;;;;;;;4963422;28;20208;-93
2021/01/29 00:20:31;;;;;;;2.60;2.40;;;;;;;;;;4963366;28;20299;-92
2021/01/29 00:22:58;;;;;;;2.20;2.00;;;;;;;;;;4963162;29;20219;-92
2021/01/29 00:25:30;;;;;;;2.42;2.22;;;;;;;;;;4962665;28;20252;-92
2021/01/29 00:27:58;;;;;;;2.35;2.15;;;;;;;;;;4962608;28;20523;-93
2021/01/29 00:30:27;;;;;;;2.78;2.10;;;;;;;;;;4962871;29;20208;-92
2021/01/29 00:32:54;;;;;;;2.50;2.30;;;;;;;;;;4962123;28;20225;-92
2021/01/29 00:35:23;;;;;;;2.63;2.42;;;;;;;;;;4962645;29;20201;-93
2021/01/29 00:37:51;;;;;;;3.17;2.90;;;;;;;;;;4963157;29;20204;-92
2021/01/29 00:40:18;;;;;;;2.85;2.65;;;;;;;;;;4962605;29;20205;-93
2021/01/29 00:42:46;;;;;;;3.00;2.70;;;;;;;;;;4962380;28;20480;-92
2021/01/29 00:45:17;;;;;;;4.63;3.03;;;;;;;;;;4962492;29;20219;-92
2021/01/29 00:47:44;;;;;;;2.80;2.60;;;;;;;;;;4962742;29;20227;-93
2021/01/29 00:50:15;;;;;;;3.45;3.15;;;;;;;;;;4962344;29;20212;-91
2021/01/29 00:52:42;;;;;;;2.75;2.55;;;;;;;;;;4962413;29;20229;-93
2021/01/29 00:55:12;;;;;;;3.47;3.17;;;;;;;;;;4962494;28;20271;-93
2021/01/29 00:57:39;;;;;;;2.78;2.58;;;;;;;;;;4962324;29;20209;-94
2021/01/29 01:00:09;;;;;;;2.67;2.42;;;;;;;;;;4961774;28;20215;-93
2021/01/29 01:02:37;;;;;;;3.03;2.30;;;;;;;;;;4962159;29;20225;-93
2021/01/29 01:05:05;;;;;;;3.15;2.85;;;;;;;;;;4962441;29;20201;-94
2021/01/29 01:07:32;;;;;;;2.70;2.50;;;;;;;;;;4962077;28;20212;-93
2021/01/29 01:10:00;;;;;;;2.97;2.78;;;;;;;;;;4962485;29;20200;-92
2021/01/29 01:12:27;;;;;;;2.70;2.50;;;;;;;;;;4962028;28;20244;-93
2021/01/29 01:14:54;;;;;;;3.65;3.35;;;;;;;;;;4962480;29;20209;-93
2021/01/29 01:17:21;;;;;;;3.60;3.30;;;;;;;;;;4961471;29;20656;-92
2021/01/29 01:19:49;;;;;;;3.17;2.60;;;;;;;;;;4961768;29;20207;-92
2021/01/29 01:22:16;;;;;;;3.42;3.13;;;;;;;;;;4961596;28;20292;-92
2021/01/29 01:24:43;;;;;;;3.25;2.95;;;;;;;;;;4961792;29;20205;-93
2021/01/29 01:27:12;;;;;;;4.28;3.30;;;;;;;;;;4961745;29;20197;-93
2021/01/29 01:29:39;;;;;;;3.47;3.17;;;;;;;;;;4961353;29;20288;-93
2021/01/29 01:32:06;;;;;;;3.28;2.97;;;;;;;;;;4960634;28;20630;-92
2021/01/29 01:34:33;;;;;;;3.38;3.17;;;;;;;;;;4961943;28;20204;-92
2021/01/29 01:37:02;;;;;;;3.95;2.95;;;;;;;;;;4961697;28;20597;-92
2021/01/29 01:39:30;;;;;;;3.85;3.55;;;;;;;;;;4961497;29;20231;-93
2021/01/29 01:41:57;;;;;;;4.38;3.97;;;;;;;;;;4961682;28;20257;-93
2021/01/29 01:44:31;;;;;;;3.47;3.17;;;;;;;;;;4961278;29;20295;-92
2021/01/29 01:47:01;;;;;;;4.07;3.42;;;;;;;;;;4961633;29;20200;-93
2021/01/29 01:49:28;;;;;;;4.38;4.03;;;;;;;;;;4961132;29;20225;-93
2021/01/29 01:52:01;;;;;;;3.97;3.67;;;;;;;;;;4961317;28;20217;-93
2021/01/29 01:54:35;;;;;;;3.97;3.65;;;;;;;;;;4960766;28;20209;-93
2021/01/29 01:57:03;;;;;;;3.75;3.45;;;;;;;;;;4960978;28;20547;-94
2021/01/29 01:59:38;;;;;;;4.20;3.80;;;;;;;;;;4961712;29;20288;-93
2021/01/29 02:02:07;;;;;;;4.53;4.13;;;;;;;;;;4960855;29;20535;-94
2021/01/29 02:04:38;;;;;;;5.10;4.07;;;;;;;;;;4960816;29;20205;-93
2021/01/29 02:07:16;;;;;;;4.57;4.15;;;;;;;;;;4961404;29;20558;-93
2021/01/29 02:09:47;;;;;;;3.90;3.50;;;;;;;;;;4961399;29;20205;-93
2021/01/29 02:12:14;;;;;;;4.55;4.15;;;;;;;;;;4960943;29;20237;-93
2021/01/29 02:14:42;;;;;;;5.22;4.72;;;;;;;;;;4960528;28;20284;-93
2021/01/29 02:17:24;;;;;;;4.47;4.07;;;;;;;;;;4912908;29;20435;-94
2021/01/29 02:20:30;;;;;;;4.07;3.67;;;;;;;;;;4960562;28;20219;-93
2021/01/29 02:23:37;;;;;;;4.95;4.20;;;;;;;;;;4960692;29;20634;-92
2021/01/29 02:26:45;;;;;;;5.45;4.45;;;;;;;;;;4960320;29;20555;-93
2021/01/29 02:30:07;;;;;;;4.40;4.00;;;;;;;;;;4968342;29;20211;-92
2021/01/29 02:33:03;;;;;;;5.15;4.65;;;;;;;;;;4932849;29;20210;-92
2021/01/29 02:36:29;;;;;;;5.45;4.95;;;;;;;;;;4937874;29;20182;-92
2021/01/29 02:39:27;;;;;;;4.65;4.25;;;;;;;;;;4923050;29;20202;-92
2021/01/29 02:42:10;;;;;;;5.53;5.00;;;;;;;;;;4916729;29;20273;-93
2021/01/29 02:45:00;;;;;;;6.40;5.07;;;;;;;;;;4923485;29;20568;-93
2021/01/29 02:47:29;;;;;;;4.82;4.43;;;;;;;;;;4925743;29;20538;-93
2021/01/29 02:50:12;;;;;;;4.88;4.40;;;;;;;;;;4934417;29;20202;-93
2021/01/29 02:52:42;;;;;;;4.40;4.00;;;;;;;;;;4941376;29;20698;-93
2021/01/29 02:55:19;;;;;;;4.68;4.18;;;;;;;;;;4934905;29;20285;-93
2021/01/29 02:57:50;;;;;;;5.45;4.93;;;;;;;;;;4925860;29;20250;-93
2021/01/29 03:00:42;;;;;;;5.15;4.60;;;;;;;;;;4924829;29;20467;-91
2021/01/29 03:03:16;;;;;;;5.07;4.65;;;;;;;;;;4925120;29;20290;-93
2021/01/29 03:05:54;;;;;;;5.25;4.75;;;;;;;;;;4925145;29;20218;-93
2021/01/29 03:08:25;;;;;;;5.50;4.85;;;;;;;;;;4885906;29;20458;-93
2021/01/29 03:11:05;;;;;;;5.78;5.18;;;;;;;;;;4964765;28;20205;-94
2021/01/29 03:13:36;;;;;;;5.20;4.63;;;;;;;;;;4964096;29;20225;-94
2021/01/29 03:16:10;;;;;;;4.85;4.35;;;;;;;;;;4964291;29;20197;-93
2021/01/29 03:18:42;;;;;;;4.65;4.25;;;;;;;;;;4964449;29;20262;-94
2021/01/29 03:21:33;;;;;;;5.97;5.35;;;;;;;;;;4964398;29;20445;-92
2021/01/29 03:24:05;;;;;;;9.25;5.72;;;;;;;;;;4964451;28;20208;-92
2021/01/29 03:26:37;;;;;;;7.55;5.05;;;;;;;;;;4964083;29;20482;-93
2021/01/29 03:29:12;;;;;;;5.00;4.50;;;;;;;;;;4964491;28;20208;-94
2021/01/29 03:31:44;;;;;;;5.80;4.90;;;;;;;;;;4963919;29;20597;-94
2021/01/29 03:34:16;;;;;;;4.88;4.38;;;;;;;;;;4964061;29;20279;-93
2021/01/29 03:36:53;;;;;;;5.53;4.97;;;;;;;;;;4964286;29;20548;-94
2021/01/29 03:39:26;;;;;;;4.78;4.30;;;;;;;;;;4964426;29;20200;-93
2021/01/29 03:42:26;;;;;;;5.25;4.63;;;;;;;;;;4964006;28;20204;-92
2021/01/29 03:45:08;;;;;;;5.65;5.05;;;;;;;;;;4961616;28;20209;-94
2021/01/29 03:47:39;;;;;;;5.43;4.90;;;;;;;;;;4964153;28;20201;-93
2021/01/29 03:50:17;;;;;;;5.07;4.50;;;;;;;;;;4964316;28;20562;-93
2021/01/29 03:52:51;;;;;;;5.20;4.72;;;;;;;;;;4963034;28;20480;-94
2021/01/29 03:55:26;;;;;;;6.30;4.78;;;;;;;;;;4963467;28;20201;-93
2021/01/29 03:58:03;;;;;;;4.65;4.13;;;;;;;;;;4962807;29;20219;-92
2021/01/29 04:00:42;;;;;;;5.95;4.88;;;;;;;;;;4963633;28;20211;-93
2021/01/29 04:03:18;;;;;;;4.82;4.13;;;;;;;;;;4963730;28;20205;-92
2021/01/29 04:06:10;;;;;;;5.47;4.88;;;;;;;;;;4963115;29;20197;-92
2021/01/29 04:08:43;;;;;;;6.60;5.43;;;;;;;;;;4961816;28;20478;-93
2021/01/29 04:11:15;;;;;;;10.85;5.35;;;;;;;;;;4962790;29;20201;-93
2021/01/29 04:13:47;;;;;;;15.65;6.88;;;;;;;;;;4963040;29;20233;-93
2021/01/29 04:16:22;;;;;;;55.10;12.70;;;;;;;;;;4962983;29;20201;-93
2021/01/29 04:18:52;;;;;;;25.75;9.75;;;;;;;;;;4963221;29;20296;-93
2021/01/29 04:21:24;;;;;;;14.20;7.40;;;;;;;;;;4963553;29;20217;-94
2021/01/29 04:23:55;;;;;;;21.98;7.93;;;;;;;;;;4963532;29;20446;-93
2021/01/29 04:26:26;;;;;;;45.72;12.13;;;;;;;;;;4962708;28;20232;-93
2021/01/29 04:28:59;;;;;;;97.97;17.42;;;;;;;;;;4962967;29;20213;-94
2021/01/29 04:31:27;;;;;;;41.75;10.73;;;;;;;;;;4962784;28;20316;-93
2021/01/29 04:34:06;;;;;;;109.53;16.52;;;;;;;;;;4962576;29;20326;-92
2021/01/29 04:36:34;;;;;;;72.00;13.38;;;;;;;;;;4962950;28;20201;-95
2021/01/29 04:39:07;;;;;;;11.75;4.65;;;;;;;;;;4962871;29;20244;-93
2021/01/29 04:41:52;;;;;;;24.85;8.57;;;;;;;;;;4963057;29;20202;-92
2021/01/29 04:45:05;;;;;;;5.20;4.45;;;;;;;;;;4963476;29;20232;-94
2021/01/29 04:47:39;;;;;;;4.70;4.22;;;;;;;;;;4942481;28;20225;-93
2021/01/29 04:50:18;;;;;;;6.05;4.25;;;;;;;;;;4942026;29;20212;-92
2021/01/29 04:53:48;;;;;;;6.28;5.38;;;;;;;;;;4942265;29;20241;-92
2021/01/29 04:56:48;;;;;;;4.32;3.83;;;;;;;;;;4852735;29;20574;-91
2021/01/29 04:59:33;;;;;;;5.63;4.38;;;;;;;;;;4885411;29;20216;-92
2021/01/29 05:02:39;;;;;;;5.07;4.00;;;;;;;;;;4884813;29;20232;-91
2021/01/29 05:05:46;;;;;;;3.75;3.38;;;;;;;;;;4885001;29;20204;-92
2021/01/29 05:09:01;;;;;;;4.53;3.00;;;;;;;;;;4884834;29;20210;-91
2021/01/29 05:12:11;;;;;;;3.50;3.20;;;;;;;;;;4879331;29;20319;-92
2021/01/29 05:15:30;;;;;;;4.38;3.55;;;;;;;;;;4884331;29;20211;-92
2021/01/29 05:18:51;;;;;;;164.43;20.20;;;;;;;;;;4810417;29;20487;-92
2021/01/29 05:21:51;;;;;;;176.98;21.15;;;;;;;;;;4722301;30;20292;-92
2021/01/29 05:24:45;;;;;;;134.98;16.63;;;;;;;;;;4722367;30;20284;-92
2021/01/29 05:27:49;;;;;;;125.60;15.93;;;;;;;;;;4722015;30;20297;-91
2021/01/29 05:30:30;;;;;;;96.03;11.82;;;;;;;;;;4721889;30;20277;-91
2021/01/29 05:33:30;;;;;;;110.35;13.57;;;;;;;;;;4741896;30;20232;-91
2021/01/29 05:36:18;;;;;;;81.68;11.05;;;;;;;;;;4757503;30;20212;-91
2021/01/29 05:39:07;;;;;;;100.28;12.57;;;;;;;;;;4756862;30;20288;-92
2021/01/29 05:42:19;;;;;;;117.68;12.77;;;;;;;;;;4757358;30;20291;-92
2021/01/29 05:45:09;;;;;;;74.07;10.63;;;;;;;;;;4743597;30;20212;-91
2021/01/29 05:48:39;;;;;;;45.45;6.45;;;;;;;;;;4757654;30;20216;-92
2021/01/29 05:51:58;;;;;;;113.88;13.77;;;;;;;;;;4718246;30;20218;-92
2021/01/29 05:55:09;;;;;;;71.43;8.80;;;;;;;;;;4731082;30;20314;-90
2021/01/29 05:58:23;;;;;;;44.50;6.65;;;;;;;;;;4797924;29;20206;-92
2021/01/29 06:01:20;;;;;;;74.10;8.63;;;;;;;;;;4884227;29;20256;-93
2021/01/29 06:04:14;;;;;;;57.42;6.88;;;;;;;;;;4884032;29;20242;-91
2021/01/29 06:07:04;;;;;;;60.95;8.60;;;;;;;;;;4884422;29;20218;-91
2021/01/29 06:10:18;;;;;;;63.55;9.05;;;;;;;;;;4884213;29;20275;-91
2021/01/29 06:13:27;;;;;;;49.88;7.50;;;;;;;;;;4884435;29;20242;-92
2021/01/29 06:16:55;;;;;;;16.48;3.50;;;;;;;;;;4884197;29;20219;-91
2021/01/29 06:20:03;;;;;;;58.08;7.10;;;;;;;;;;4810548;29;20234;-92
2021/01/29 06:23:02;;;;;;;46.50;6.45;;;;;;;;;;4810611;29;20297;-92
2021/01/29 06:25:46;;;;;;;40.10;7.80;;;;;;;;;;4883581;29;20239;-93
2021/01/29 06:29:00;;;;;;;72.85;10.85;;;;;;;;;;4942340;28;20286;-91
2021/01/29 06:32:17;;;;;;;38.70;7.88;;;;;;;;;;4883695;29;20228;-91
2021/01/29 06:35:02;;;;;;;54.88;7.32;;;;;;;;;;4902135;29;20317;-91
2021/01/29 06:37:39;;;;;;;47.10;8.32;;;;;;;;;;4902699;29;20211;-94
2021/01/29 06:40:16;;;;;;;38.28;6.32;;;;;;;;;;4902695;29;20205;-93
2021/01/29 06:43:15;;;;;;;86.75;10.57;;;;;;;;;;4903010;29;20637;-92
2021/01/29 06:46:26;;;;;;;32.05;6.35;;;;;;;;;;4902743;29;20219;-92
2021/01/29 06:49:20;;;;;;;58.20;8.25;;;;;;;;;;4901854;29;20199;-91
2021/01/29 06:52:08;;;;;;;24.70;4.80;;;;;;;;;;4900091;29;20211;-93
2021/01/29 06:55:01;;;;;;;42.78;6.35;;;;;;;;;;4900816;29;20258;-92
2021/01/29 06:58:05;;;;;;;4.78;3.08;;;;;;;;;;4901802;29;20188;-92
2021/01/29 07:01:07;;;;;;;13.50;3.28;;;;;;;;;;4899583;29;20217;-93
2021/01/29 07:04:06;;;;;;;8.45;3.38;;;;;;;;;;4902076;29;20216;-92
2021/01/29 07:06:58;;;;;;;15.05;3.80;;;;;;;;;;4902201;29;20219;-93
2021/01/29 07:09:44;;;;;;;5.75;3.03;;;;;;;;;;4939271;29;20224;-93
2021/01/29 07:12:28;;;;;;;2.40;2.20;;;;;;;;;;4941239;29;20217;-92
2021/01/29 07:15:17;;;;;;;6.78;2.75;;;;;;;;;;4941072;28;20316;-92
2021/01/29 07:18:07;;;;;;;5.45;2.58;;;;;;;;;;4939133;29;20265;-93
2021/01/29 07:21:22;;;;;;;3.03;2.70;;;;;;;;;;4941737;29;20264;-92
2021/01/29 07:24:37;;;;;;;5.63;2.25;;;;;;;;;;4935988;29;20284;-91
2021/01/29 07:27:15;;;;;;;8.27;2.85;;;;;;;;;;4941889;29;20547;-93
2021/01/29 07:30:18;;;;;;;7.70;3.83;;;;;;;;;;4941922;29;20291;-93
2021/01/29 07:32:49;;;;;;;6.43;3.58;;;;;;;;;;4944944;29;20280;-93
2021/01/29 07:35:33;;;;;;;10.35;3.42;;;;;;;;;;4944957;29;20229;-93
2021/01/29 07:38:17;;;;;;;6.45;4.15;;;;;;;;;;4944571;28;20198;-93
2021/01/29 07:41:17;;;;;;;4.53;3.55;;;;;;;;;;4944924;29;20206;-93
2021/01/29 07:44:04;;;;;;;5.22;3.30;;;;;;;;;;4944858;28;20202;-92
2021/01/29 07:47:21;;;;;;;4.20;3.70;;;;;;;;;;4944716;28;20538;-92
2021/01/29 07:50:05;;;;;;;3.22;2.92;;;;;;;;;;4926296;29;20477;-93
2021/01/29 07:52:44;;;;;;;2.88;2.67;;;;;;;;;;4944367;28;20205;-93
2021/01/29 07:55:25;;;;;;;2.80;2.50;;;;;;;;;;4944074;28;20225;-93
2021/01/29 07:58:20;;;;;;;3.80;3.15;;;;;;;;;;4944489;28;20206;-93
2021/01/29 08:01:21;;;;;;;2.80;2.60;;;;;;;;;;4944427;28;20236;-93
2021/01/29 08:04:08;;;;;;;2.90;2.63;;;;;;;;;;4940945;29;20201;-91
2021/01/29 08:06:45;;;;;;;3.33;3.03;;;;;;;;;;4943338;29;20284;-93
2021/01/29 08:09:20;;;;;;;3.47;3.15;;;;;;;;;;4946476;29;20182;-92
2021/01/29 08:11:52;;;;;;;3.13;2.80;;;;;;;;;;4946555;29;20552;-92
2021/01/29 08:14:58;;;;;;;3.55;2.80;;;;;;;;;;4945389;29;20229;-93
2021/01/29 08:17:38;;;;;;;5.38;2.78;;;;;;;;;;4939614;29;20213;-93
2021/01/29 08:20:31;;;;;;;3.85;2.65;;;;;;;;;;4943613;29;20663;-92
2021/01/29 08:23:17;;;;;;;2.95;2.42;;;;;;;;;;4944135;29;20285;-92
2021/01/29 08:26:36;;;;;;;3.47;3.10;;;;;;;;;;4955881;28;20255;-92
2021/01/29 08:29:44;;;;;;;2.33;2.13;;;;;;;;;;4965811;29;20201;-91
2021/01/29 08:32:59;;;;;;;1.80;1.70;;;;;;;;;;4964350;29;20295;-92
2021/01/29 08:36:02;;;;;;;4.60;2.85;;;;;;;;;;4885092;29;20224;-92
2021/01/29 08:38:38;;;;;;;3.33;2.90;;;;;;;;;;4885714;29;20209;-93
2021/01/29 08:41:15;;;;;;;4.05;3.38;;;;;;;;;;4903024;29;20207;-92
2021/01/29 08:44:00;;;;;;;2.53;2.33;;;;;;;;;;4903781;29;20229;-92
2021/01/29 08:46:55;;;;;;;2.95;2.35;;;;;;;;;;4903656;29;20291;-92
2021/01/29 08:49:43;;;;;;;3.03;2.50;;;;;;;;;;4904023;29;20211;-93
2021/01/29 08:52:45;;;;;;;6.72;3.47;;;;;;;;;;4903974;29;20221;-93
2021/01/29 08:55:52;;;;;;;6.65;3.15;;;;;;;;;;4903561;29;20247;-93
2021/01/29 08:58:25;;;;;;;12.23;4.25;;;;;;;;;;4903702;29;20512;-91
2021/01/29 09:01:02;;;;;;;9.55;4.60;;;;;;;;;;4904103;29;20232;-93
2021/01/29 09:03:37;;;;;;;17.75;5.47;;;;;;;;;;4903706;29;20206;-91
2021/01/29 09:06:14;;;;;;;11.73;3.53;;;;;;;;;;4903583;29;20214;-93
2021/01/29 09:08:41;;;;;;;4.68;2.75;;;;;;;;;;4903511;29;20289;-93
2021/01/29 09:11:47;;;;;;;3.58;3.17;;;;;;;;;;4903753;29;20203;-92
2021/01/29 09:14:37;;;;;;;;;;;;;;;;;;;;;
2021/01/29 09:17:17;;;;;;;1.83;1.70;;;;;;;;;;4922009;29;20201;-93
2021/01/29 09:19:55;;;;;;;2.00;1.90;;;;;;;;;;4922282;29;20213;-92
2021/01/29 09:22:28;;;;;;;2.20;1.90;;;;;;;;;;4921823;29;20193;-91
2021/01/29 09:25:04;;;;;;;2.28;2.08;;;;;;;;;;4922214;29;20246;-91
2021/01/29 09:27:45;;;;;;;2.35;2.15;;;;;;;;;;4922233;29;20549;-92
2021/01/29 09:30:21;;;;;;;1.92;1.83;;;;;;;;;;4940863;29;20586;-93
2021/01/29 09:33:01;;;;;;;2.00;1.83;;;;;;;;;;4940766;29;20190;-93
2021/01/29 09:35:50;;;;;;;2.58;2.25;;;;;;;;;;4940646;29;20655;-91
2021/01/29 09:38:24;;;;;;;2.72;2.47;;;;;;;;;;4941368;29;20261;-93
2021/01/29 09:41:19;;;;;;;5.85;2.97;;;;;;;;;;4941197;29;20287;-92
2021/01/29 09:44:02;;;;;;;10.82;3.85;;;;;;;;;;4940905;29;20206;-93
2021/01/29 09:46:32;;;;;;;10.85;3.78;;;;;;;;;;4961324;28;20201;-93
2021/01/29 09:49:07;;;;;;;6.47;3.70;;;;;;;;;;4960927;28;20219;-93
2021/01/29 09:51:56;;;;;;;12.63;4.88;;;;;;;;;;4961379;28;20201;-92
2021/01/29 09:54:29;;;;;;;36.50;7.10;;;;;;;;;;4961092;28;20268;-93
2021/01/29 09:57:01;;;;;;;9.15;5.55;;;;;;;;;;4960941;28;20185;-93
2021/01/29 09:59:41;;;;;;;17.02;6.75;;;;;;;;;;4961167;28;20215;-92
2021/01/29 10:02:16;;;;;;;45.47;7.70;;;;;;;;;;4961282;28;20555;-93
2021/01/29 10:05:23;;;;;;;41.63;9.25;;;;;;;;;;4961321;28;20200;-93
2021/01/29 10:08:03;;;;;;;38.05;7.70;;;;;;;;;;4958332;28;20263;-91
2021/01/29 10:10:48;;;;;;;11.52;5.78;;;;;;;;;;4961053;28;20200;-93
2021/01/29 10:13:53;;;;;;;13.18;5.60;;;;;;;;;;4929605;29;20573;-92
2021/01/29 10:16:45;;;;;;;13.63;4.95;;;;;;;;;;4920140;29;20228;-92
2021/01/29 10:19:32;;;;;;;5.60;4.47;;;;;;;;;;4941964;29;20556;-92
2021/01/29 10:22:30;;;;;;;3.47;3.22;;;;;;;;;;4979900;28;20196;-91
2021/01/29 10:25:31;;;;;;;5.15;3.92;;;;;;;;;;4980753;28;20232;-92
2021/01/29 10:28:03;;;;;;;6.43;5.45;;;;;;;;;;4980472;28;20200;-89
2021/01/29 10:30:36;;;;;;;4.75;3.97;;;;;;;;;;4979830;28;20207;-90
2021/01/29 10:33:10;;;;;;;4.47;3.95;;;;;;;;;;4979918;28;20467;-91
2021/01/29 10:35:42;;;;;;;4.72;4.07;;;;;;;;;;4979807;28;20372;-90
2021/01/29 10:38:13;;;;;;;3.53;3.22;;;;;;;;;;4980110;28;20204;-92
2021/01/29 10:40:44;;;;;;;3.97;3.10;;;;;;;;;;4959468;29;20186;-90
2021/01/29 10:43:21;;;;;;;3.13;2.50;;;;;;;;;;4960343;29;20627;-91
2021/01/29 10:46:42;;;;;;;2.63;2.00;;;;;;;;;;4960854;29;20220;-91
2021/01/29 10:49:18;;;;;;;2.53;2.30;;;;;;;;;;4921481;29;20213;-91
2021/01/29 10:51:59;;;;;;;2.05;1.92;;;;;;;;;;4933797;29;20256;-90
2021/01/29 10:54:35;;;;;;;1.25;1.25;;;;;;;;;;4939678;29;20202;-89
2021/01/29 10:57:09;;;;;;;1.35;1.25;;;;;;;;;;4936318;29;20198;-91
2021/01/29 10:59:42;;;;;;;1.27;1.17;;;;;;;;;;4939761;29;20200;-91
2021/01/29 11:02:14;;;;;;;1.55;1.45;;;;;;;;;;4939722;29;20229;-93
2021/01/29 11:04:46;;;;;;;1.40;1.23;;;;;;;;;;4940944;29;20300;-91
2021/01/29 11:07:22;;;;;;;0.90;0.90;;;;;;;;;;4943571;29;20202;-91
2021/01/29 11:09:57;;;;;;;2.03;1.77;;;;;;;;;;4943902;29;20209;-91
2021/01/29 11:12:31;;;;;;;1.35;1.25;;;;;;;;;;4943660;28;20228;-92
2021/01/29 11:15:00;;;;;;;1.25;1.15;;;;;;;;;;4943969;29;20446;-91
2021/01/29 11:17:33;;;;;;;0.90;0.90;;;;;;;;;;4943429;29;20213;-92
2021/01/29 11:20:10;;;;;;;1.00;0.95;;;;;;;;;;4963049;28;20227;-91
2021/01/29 11:22:46;;;;;;;1.50;1.40;;;;;;;;;;4983329;28;20253;-91
2021/01/29 11:25:38;;;;;;;1.30;1.20;;;;;;;;;;4983372;28;20236;-90
2021/01/29 11:28:17;;;;;;;1.60;1.50;;;;;;;;;;4983040;28;20541;-90
2021/01/29 11:30:54;;;;;;;2.13;1.63;;;;;;;;;;4983184;28;20290;-91
2021/01/29 11:33:27;;;;;;;2.55;1.90;;;;;;;;;;4982797;28;20216;-91
2021/01/29 11:36:02;;;;;;;2.83;2.10;;;;;;;;;;4983537;28;20216;-91
2021/01/29 11:39:00;;;;;;;3.65;1.75;;;;;;;;;;4982487;28;20279;-92
2021/01/29 11:41:44;;;;;;;2.60;2.20;;;;;;;;;;4973451;28;20201;-91
2021/01/29 11:44:17;;;;;;;2.75;2.55;;;;;;;;;;4982312;28;20263;-92
2021/01/29 11:46:52;;;;;;;1.83;1.73;;;;;;;;;;4982980;28;20205;-92
2021/01/29 11:49:23;;;;;;;4.95;3.35;;;;;;;;;;4983098;28;20470;-91
2021/01/29 11:52:12;;;;;;;2.53;1.88;;;;;;;;;;4968380;28;20215;-91
2021/01/29 11:54:49;;;;;;;1.70;1.60;;;;;;;;;;4963320;28;20197;-92
2021/01/29 11:57:24;;;;;;;1.92;1.80;;;;;;;;;;4963275;29;20211;-92
2021/01/29 12:00:04;;;;;;;2.42;2.22;;;;;;;;;;4963471;29;20479;-92
2021/01/29 12:02:34;;;;;;;1.80;1.70;;;;;;;;;;4963238;28;20238;-91
2021/01/29 12:05:28;;;;;;;1.70;1.60;;;;;;;;;;4963520;29;20197;-91
2021/01/29 12:08:23;;;;;;;3.50;2.80;;;;;;;;;;4962601;29;20275;-91
2021/01/29 12:10:59;;;;;;;2.80;2.60;;;;;;;;;;4962966;29;20219;-91
2021/01/29 12:13:35;;;;;;;2.30;2.10;;;;;;;;;;4962797;28;20448;-92
2021/01/29 12:16:18;;;;;;;2.97;1.83;;;;;;;;;;4962641;28;20217;-92
2021/01/29 12:18:48;;;;;;;1.13;1.08;;;;;;;;;;4962516;29;20209;-94
2021/01/29 12:21:27;;;;;;;1.60;1.40;;;;;;;;;;4963051;29;20231;-94
2021/01/29 12:24:21;;;;;;;1.27;1.17;;;;;;;;;;4962341;29;20317;-92
2021/01/29 12:26:57;;;;;;;1.10;0.95;;;;;;;;;;4962023;28;20312;-92
2021/01/29 12:29:33;;;;;;;1.00;1.00;;;;;;;;;;4961842;29;20220;-93
2021/01/29 12:32:28;;;;;;;1.83;1.73;;;;;;;;;;4962905;28;20287;-92
2021/01/29 12:35:09;;;;;;;1.23;1.15;;;;;;;;;;4941938;29;20219;-92
2021/01/29 12:37:38;;;;;;;1.02;1.00;;;;;;;;;;4941968;29;20280;-94
2021/01/29 12:40:12;;;;;;;1.25;1.20;;;;;;;;;;4942113;29;20235;-92
2021/01/29 12:42:54;;;;;;;1.35;1.27;;;;;;;;;;4941914;29;20201;-92
2021/01/29 12:45:25;;;;;;;1.17;1.08;;;;;;;;;;4941592;29;20237;-92
2021/01/29 12:48:01;;;;;;;2.45;1.90;;;;;;;;;;4942184;29;20225;-92
2021/01/29 12:50:52;;;;;;;1.60;1.50;;;;;;;;;;4942219;29;20279;-93
2021/01/29 12:53:25;;;;;;;1.83;1.27;;;;;;;;;;4941448;29;20573;-93
2021/01/29 12:56:03;;;;;;;1.48;1.38;;;;;;;;;;4941488;29;20600;-93
2021/01/29 12:58:34;;;;;;;2.05;1.88;;;;;;;;;;4941450;29;20241;-93
2021/01/29 13:01:20;;;;;;;3.33;2.10;;;;;;;;;;4941458;29;20218;-92
2021/01/29 13:03:55;;;;;;;1.23;1.23;;;;;;;;;;4941076;29;20555;-93
2021/01/29 13:06:37;;;;;;;3.65;2.28;;;;;;;;;;4925823;29;20252;-94
2021/01/29 13:09:35;;;;;;;2.47;1.50;;;;;;;;;;4941524;29;20302;-94
2021/01/29 13:12:33;;;;;;;3.30;1.90;;;;;;;;;;4951254;29;20208;-93
2021/01/29 13:15:39;;;;;;;6.18;3.00;;;;;;;;;;4958442;29;20189;-93
2021/01/29 13:18:14;;;;;;;3.88;2.25;;;;;;;;;;4962920;29;20339;-93
2021/01/29 13:20:45;;;;;;;2.28;1.83;;;;;;;;;;4962581;29;20228;-93
2021/01/29 13:23:24;;;;;;;2.95;2.10;;;;;;;;;;4961427;29;20212;-94
2021/01/29 13:26:03;;;;;;;4.82;2.20;;;;;;;;;;4960883;28;20307;-93
2021/01/29 13:28:40;;;;;;;5.05;3.45;;;;;;;;;;4957804;28;20209;-93
2021/01/29 13:31:21;;;;;;;3.13;2.83;;;;;;;;;;4961559;28;20320;-93
2021/01/29 13:33:53;;;;;;;5.13;2.75;;;;;;;;;;4960985;28;20253;-94
2021/01/29 13:36:32;;;;;;;4.72;3.00;;;;;;;;;;4960987;29;20225;-94
2021/01/29 13:39:24;;;;;;;4.88;2.35;;;;;;;;;;4961512;29;20285;-93
2021/01/29 13:41:54;;;;;;;6.80;3.83;;;;;;;;;;4962320;29;20463;-94
2021/01/29 13:44:40;;;;;;;4.30;2.30;;;;;;;;;;4962447;28;20344;-93
2021/01/29 13:47:17;;;;;;;6.07;2.75;;;;;;;;;;4962220;29;20280;-94
2021/01/29 13:49:44;;;;;;;4.60;2.90;;;;;;;;;;4962154;28;20292;-93
2021/01/29 13:52:26;;;;;;;3.30;2.25;;;;;;;;;;4962448;29;20225;-94
2021/01/29 13:54:55;;;;;;;4.55;2.63;;;;;;;;;;4961416;29;20524;-93
2021/01/29 13:57:31;;;;;;;4.93;2.83;;;;;;;;;;4960765;28;20263;-93
2021/01/29 14:00:09;;;;;;;5.95;2.75;;;;;;;;;;4961066;28;20259;-93
2021/01/29 14:02:43;;;;;;;8.30;3.30;;;;;;;;;;4960258;29;20248;-93
2021/01/29 14:05:15;;;;;;;5.50;3.33;;;;;;;;;;4959912;29;20571;-91
2021/01/29 14:07:46;;;;;;;5.55;3.42;;;;;;;;;;4961335;29;20209;-93
2021/01/29 14:10:16;;;;;;;9.45;3.33;;;;;;;;;;4960715;29;20260;-93
2021/01/29 14:13:00;;;;;;;4.70;3.20;;;;;;;;;;4961061;28;20205;-93
2021/01/29 14:15:34;;;;;;;10.35;4.25;;;;;;;;;;4961300;29;20209;-92
2021/01/29 14:18:28;;;;;;;8.25;3.97;;;;;;;;;;4961643;28;20196;-94
2021/01/29 14:21:01;;;;;;;6.00;3.53;;;;;;;;;;4957220;29;20270;-91
2021/01/29 14:23:34;;;;;;;6.53;3.58;;;;;;;;;;4960936;28;20201;-91
2021/01/29 14:26:07;;;;;;;6.78;4.05;;;;;;;;;;4960279;29;20225;-92
2021/01/29 14:28:49;;;;;;;10.80;4.43;;;;;;;;;;4960238;29;20614;-92
2021/01/29 14:31:23;;;;;;;11.10;4.90;;;;;;;;;;4960560;29;20286;-94
2021/01/29 14:34:06;;;;;;;6.90;3.60;;;;;;;;;;4960538;28;20606;-94
2021/01/29 14:36:49;;;;;;;8.75;3.47;;;;;;;;;;4960388;28;20228;-92
2021/01/29 14:39:37;;;;;;;13.23;3.50;;;;;;;;;;4957199;28;20204;-93
2021/01/29 14:42:20;;;;;;;8.23;3.40;;;;;;;;;;4963961;29;20276;-93
2021/01/29 14:45:39;;;;;;;10.88;4.50;;;;;;;;;;4964962;29;20216;-94
2021/01/29 14:48:52;;;;;;;15.13;4.80;;;;;;;;;;4887847;29;20211;-92
2021/01/29 14:51:29;;;;;;;6.72;3.30;;;;;;;;;;4944927;29;20201;-92
2021/01/29 14:54:00;;;;;;;8.18;3.47;;;;;;;;;;4945006;29;20221;-93
2021/01/29 14:56:34;;;;;;;8.77;5.45;;;;;;;;;;4945548;29;20539;-92
2021/01/29 14:59:07;;;;;;;7.97;3.70;;;;;;;;;;4945541;29;20212;-92
2021/01/29 15:01:39;;;;;;;6.10;3.53;;;;;;;;;;4953005;29;20225;-92
2021/01/29 15:04:12;;;;;;;7.80;3.40;;;;;;;;;;4964200;29;20259;-92
2021/01/29 15:06:40;;;;;;;6.25;3.83;;;;;;;;;;4963801;28;20201;-92
2021/01/29 15:09:12;;;;;;;6.97;3.35;;;;;;;;;;4963969;29;20201;-93
2021/01/29 15:11:48;;;;;;;11.55;3.47;;;;;;;;;;4963732;29;20201;-91
2021/01/29 15:14:45;;;;;;;7.90;3.47;;;;;;;;;;4964528;29;20201;-91
2021/01/29 15:17:31;;;;;;;7.32;3.75;;;;;;;;;;4963772;28;20300;-91
2021/01/29 15:20:29;;;;;;;7.65;3.83;;;;;;;;;;4964041;29;20464;-92
2021/01/29 15:23:26;;;;;;;6.85;3.40;;;;;;;;;;4963746;28;20211;-91
2021/01/29 15:26:13;;;;;;;8.07;3.30;;;;;;;;;;4963029;28;20297;-92
2021/01/29 15:28:45;;;;;;;4.95;3.28;;;;;;;;;;4964527;28;20197;-91
2021/01/29 15:31:41;;;;;;;6.68;4.05;;;;;;;;;;4963720;29;20225;-91
2021/01/29 15:34:09;;;;;;;7.70;3.10;;;;;;;;;;4964183;29;20198;-90
2021/01/29 15:36:50;;;;;;;4.63;3.17;;;;;;;;;;4962509;28;20229;-91
2021/01/29 15:39:34;;;;;;;6.78;3.10;;;;;;;;;;4963734;29;20193;-91
2021/01/29 15:42:08;;;;;;;4.55;2.80;;;;;;;;;;4962924;29;20464;-92
2021/01/29 15:44:53;;;;;;;6.25;3.13;;;;;;;;;;4963091;29;20272;-92
2021/01/29 15:47:58;;;;;;;4.68;2.80;;;;;;;;;;4963716;28;20288;-92
2021/01/29 15:51:01;;;;;;;5.85;4.13;;;;;;;;;;4963136;28;20472;-91
2021/01/29 15:54:05;;;;;;;6.82;3.00;;;;;;;;;;4963050;29;20442;-93
2021/01/29 15:56:38;;;;;;;10.45;3.75;;;;;;;;;;4962959;29;20244;-92
2021/01/29 15:59:17;;;;;;;8.95;4.30;;;;;;;;;;4963016;28;20185;-91
2021/01/29 16:01:47;;;;;;;8.82;3.80;;;;;;;;;;4963058;29;20221;-93
2021/01/29 16:04:39;;;;;;;4.50;2.78;;;;;;;;;;4962552;29;20205;-91
2021/01/29 16:07:23;;;;;;;2.67;2.45;;;;;;;;;;4963734;29;20281;-91
2021/01/29 16:10:06;;;;;;;5.57;3.67;;;;;;;;;;4963233;29;20267;-91
2021/01/29 16:12:40;;;;;;;4.82;3.35;;;;;;;;;;4963075;28;20205;-92